Time;durP1;ratioP1;P1;durP2;ratioP2;P2;SDS_P1;SDS_P2;PMS_P1;PMS_P2;Temp;Humidity;BMP_temperature;BMP_pressure;BME280_temperature;BME280_humidity;BME280_pressure;Samples;Min_cycle;Max_cycle;Signal;HPM_P1;HPM_P2
2023/07/24 00:01:26;;;;;;;8.30;5.10;;;;;;;16.24;100.00;95525.22;7433903;19;20394;-92
2023/07/24 00:04:15;;;;;;;6.10;5.30;;;;;;;16.65;100.00;95572.84;7432655;19;20386;-93
2023/07/24 00:06:44;;;;;;;6.47;5.77;;;;;;;16.33;100.00;95492.84;7430863;19;20451;-93
2023/07/24 00:09:13;;;;;;;12.37;5.83;;;;;;;16.35;100.00;95517.22;7433148;19;20390;-93
2023/07/24 00:11:50;;;;;;;6.90;6.00;;;;;;;15.87;100.00;95466.94;7432241;19;20439;-94
2023/07/24 00:14:23;;;;;;;5.70;4.43;;;;;;;15.14;100.00;95359.19;7433005;19;20386;-93
2023/07/24 00:17:07;;;;;;;5.93;5.33;;;;;;;15.65;100.00;95444.88;7431378;19;20436;-94
2023/07/24 00:19:41;;;;;;;7.20;5.07;;;;;;;16.22;100.00;95511.53;7430728;19;20448;-93
2023/07/24 00:22:27;;;;;;;5.60;5.00;;;;;;;15.86;100.00;95454.75;7432883;19;20434;-93
2023/07/24 00:25:05;;;;;;;5.53;5.03;;;;;;;16.17;100.00;95474.56;7431658;19;20387;-93
2023/07/24 00:27:40;;;;;;;5.67;5.00;;;;;;;16.95;100.00;95585.00;7429683;19;20431;-92
2023/07/24 00:30:14;;;;;;;5.60;5.00;;;;;;;15.65;100.00;95396.16;7432260;19;20399;-94
2023/07/24 00:33:21;;;;;;;5.30;4.80;;;;;;;15.22;100.00;95358.03;7430033;19;20400;-93
2023/07/24 00:36:03;;;;;;;5.50;4.73;;;;;;;16.13;100.00;95497.78;7430909;19;20389;-93
2023/07/24 00:38:31;;;;;;;5.50;4.70;;;;;;;16.42;100.00;95572.47;7426774;19;20406;-94
2023/07/24 00:41:22;;;;;;;5.07;4.47;;;;;;;17.27;100.00;95713.19;7431613;19;20395;-93
2023/07/24 00:44:11;;;;;;;6.63;6.03;;;;;;;15.76;100.00;95494.75;7431116;19;20400;-93
2023/07/24 00:47:05;;;;;;;6.17;5.57;;;;;;;15.79;100.00;95534.75;7428119;19;20476;-93
2023/07/24 00:50:03;;;;;;;8.23;6.13;;;;;;;15.66;100.00;95525.59;7431848;19;20386;-94
2023/07/24 00:52:44;;;;;;;9.00;6.43;;;;;;;15.94;100.00;95541.63;7431374;19;20381;-93
2023/07/24 00:55:16;;;;;;;11.27;6.70;;;;;;;16.48;100.00;95611.00;7429581;19;20396;-92
2023/07/24 00:57:48;;;;;;;15.33;6.90;;;;;;;17.11;100.00;95702.91;7430077;19;20450;-92
2023/07/24 01:00:15;;;;;;;6.27;5.67;;;;;;;16.61;100.00;95622.03;7427767;19;20393;-91
2023/07/24 01:02:45;;;;;;;7.73;5.90;;;;;;;16.39;100.00;95621.28;7431630;19;20389;-92
2023/07/24 01:05:27;;;;;;;10.60;7.03;;;;;;;15.89;100.00;95555.34;7430232;19;20473;-93
2023/07/24 01:07:57;;;;;;;8.97;5.27;;;;;;;16.81;100.00;95740.66;7431178;19;20422;-92
2023/07/24 01:10:50;;;;;;;10.40;7.70;;;;;;;16.26;100.00;95700.91;7431793;19;20386;-92
2023/07/24 01:13:25;;;;;;;8.20;6.77;;;;;;;15.02;100.00;95510.16;7429014;19;20460;-91
2023/07/24 01:16:13;;;;;;;6.13;5.53;;;;;;;15.79;100.00;95648.59;7431974;19;20388;-93
2023/07/24 01:18:43;;;;;;;8.00;6.57;;;;;;;14.75;100.00;95496.34;7430966;19;20382;-94
2023/07/24 01:21:13;;;;;;;9.40;7.47;;;;;;;16.27;100.00;95737.88;7429320;19;20397;-93
2023/07/24 01:23:50;;;;;;;7.83;7.00;;;;;;;16.19;100.00;95725.69;7431286;19;20408;-93
2023/07/24 01:26:23;;;;;;;9.83;7.43;;;;;;;14.91;100.00;95543.19;7429172;19;20403;-93
2023/07/24 01:28:51;;;;;;;8.57;7.10;;;;;;;15.36;100.00;95629.75;7431477;19;20374;-93
2023/07/24 01:31:21;;;;;;;9.20;6.80;;;;;;;15.70;100.00;95699.59;7426870;19;20377;-92
2023/07/24 01:34:00;;;;;;;7.77;6.50;;;;;;;15.41;100.00;95620.63;7427479;19;20361;-92
2023/07/24 01:36:43;;;;;;;11.67;8.93;;;;;;;15.04;100.00;95537.16;7430020;19;20390;-93
2023/07/24 01:39:20;;;;;;;8.17;6.93;;;;;;;14.76;100.00;95497.88;7429805;19;20392;-94
2023/07/24 01:44:41;;;;;;;9.23;6.30;;;;;;;14.48;100.00;95526.97;7430918;19;20385;-95
2023/07/24 01:47:32;;;;;;;8.93;7.70;;;;;;;14.17;100.00;95425.34;7427912;19;20428;-94
2023/07/24 01:50:41;;;;;;;9.03;6.70;;;;;;;15.77;100.00;95650.88;7428184;19;20410;-94
2023/07/24 02:39:25;;;;;;;11.50;7.37;;;;;;;14.33;100.00;95390.47;7402610;19;20401;-89
2023/07/24 02:41:53;;;;;;;11.87;7.90;;;;;;;14.41;100.00;95392.00;7399819;19;20372;-90
2023/07/24 02:44:20;;;;;;;12.30;8.83;;;;;;;13.80;100.00;95307.81;7405487;19;20416;-89
2023/07/24 02:46:47;;;;;;;8.70;6.37;;;;;;;14.29;100.00;95367.66;7416639;19;20396;-91
2023/07/24 02:49:14;;;;;;;11.03;7.50;;;;;;;15.07;100.00;95515.09;7434891;19;20393;-91
2023/07/24 02:51:41;;;;;;;11.50;7.53;;;;;;;14.62;100.00;95431.28;7434386;19;20455;-92
2023/07/24 02:54:08;;;;;;;9.80;6.70;;;;;;;14.76;100.00;95465.16;7430743;19;20396;-92
2023/07/24 02:56:35;;;;;;;8.47;7.57;;;;;;;13.97;100.00;95349.66;7432848;19;20442;-92
2023/07/24 02:59:02;;;;;;;11.53;8.60;;;;;;;13.87;100.00;95313.16;7427704;19;20393;-90
2023/07/24 03:01:29;;;;;;;11.80;7.90;;;;;;;14.15;100.00;95363.78;7404835;19;20907;-90
2023/07/24 03:03:56;;;;;;;11.13;8.00;;;;;;;14.66;100.00;95449.91;7399731;19;20406;-89
2023/07/24 03:06:24;;;;;;;11.60;7.80;;;;;;;14.25;100.00;95378.28;7400348;19;20380;-89
2023/07/24 03:08:51;;;;;;;10.13;7.60;;;;;;;13.31;100.00;95243.41;7399251;19;20400;-90
2023/07/24 03:11:18;;;;;;;8.00;7.20;;;;;;;13.83;100.00;95318.44;7397395;19;20408;-89
2023/07/24 03:13:45;;;;;;;9.03;8.03;;;;;;;14.42;100.00;95408.72;7400256;19;20385;-89
2023/07/24 03:16:12;;;;;;;8.53;7.33;;;;;;;13.70;100.00;95313.81;7400389;19;20387;-89
2023/07/24 03:18:40;;;;;;;7.47;6.63;;;;;;;14.84;100.00;95477.38;7401786;19;20378;-89
2023/07/24 03:21:07;;;;;;;8.30;7.50;;;;;;;14.50;100.00;95450.22;7397991;19;20454;-88
2023/07/24 03:23:34;;;;;;;9.50;7.87;;;;;;;13.60;100.00;95308.06;7401093;19;20432;-89
2023/07/24 03:26:01;;;;;;;10.17;7.70;;;;;;;14.22;100.00;95383.56;7399367;19;20767;-89
2023/07/24 03:28:28;;;;;;;10.70;8.60;;;;;;;14.96;100.00;95487.69;7397818;19;20370;-89
2023/07/24 03:30:55;;;;;;;9.90;8.83;;;;;;;14.29;100.00;95447.41;7397882;19;20480;-89
2023/07/24 03:33:22;;;;;;;9.50;8.00;;;;;;;14.78;100.00;95508.91;7400573;19;20387;-89
2023/07/24 03:35:50;;;;;;;10.93;7.83;;;;;;;14.35;100.00;95456.59;7399429;19;20935;-89
2023/07/24 03:38:17;;;;;;;10.40;8.70;;;;;;;14.44;100.00;95454.38;7401932;19;20388;-89
2023/07/24 03:40:44;;;;;;;8.90;7.67;;;;;;;13.86;100.00;95372.72;7398859;19;20424;-89
2023/07/24 03:43:11;;;;;;;13.30;7.90;;;;;;;14.06;100.00;95387.28;7401782;19;20917;-89
2023/07/24 03:45:38;;;;;;;12.40;9.60;;;;;;;14.69;100.00;95468.56;7401142;19;20417;-89
2023/07/24 03:48:05;;;;;;;10.87;8.10;;;;;;;13.57;100.00;95316.00;7402819;19;20940;-89
2023/07/24 03:50:32;;;;;;;9.33;8.30;;;;;;;14.46;100.00;95433.50;7399195;19;20428;-89
2023/07/24 03:52:59;;;;;;;8.03;7.20;;;;;;;14.15;100.00;95377.06;7404400;19;20722;-89
2023/07/24 04:35:48;;;;;;;9.13;7.90;;;;;;;12.29;100.00;95156.59;7396157;19;20390;-90
2023/07/24 04:52:21;;;;;;;11.93;8.67;;;;;;;13.96;100.00;95390.66;6175883;19;3987830;-89
2023/07/24 04:54:48;;;;;;;12.83;9.40;;;;;;;13.94;100.00;95384.19;7432801;19;20129;-88
2023/07/24 04:57:15;;;;;;;12.23;9.50;;;;;;;13.72;100.00;95359.38;7438381;19;20759;-89
2023/07/24 04:59:42;;;;;;;10.30;9.10;;;;;;;13.96;100.00;95352.69;7437346;19;20456;-89
2023/07/24 05:02:10;;;;;;;10.20;8.27;;;;;;;14.19;100.00;95334.56;7435574;19;20410;-89
2023/07/24 05:04:37;;;;;;;12.53;8.53;;;;;;;14.80;100.00;95396.75;7437825;19;20378;-89
2023/07/24 05:07:04;;;;;;;9.20;8.30;;;;;;;15.02;100.00;95402.91;7435129;19;20383;-89
2023/07/24 05:09:31;;;;;;;10.03;8.87;;;;;;;14.81;100.00;95379.66;7433597;19;20737;-89
2023/07/24 05:11:58;;;;;;;11.40;8.57;;;;;;;14.68;100.00;95365.16;7435709;19;20382;-89
2023/07/24 05:14:25;;;;;;;12.67;9.13;;;;;;;13.97;100.00;95239.94;7440150;19;20387;-88
2023/07/24 05:16:52;;;;;;;11.10;8.90;;;;;;;14.76;100.00;95362.16;7430925;19;20382;-89
2023/07/24 05:19:19;;;;;;;9.73;8.73;;;;;;;15.12;100.00;95394.19;7435828;19;20397;-89
2023/07/24 05:21:46;;;;;;;12.90;9.17;;;;;;;14.98;100.00;95397.56;7432338;19;20486;-89
2023/07/24 05:24:13;;;;;;;10.40;8.07;;;;;;;15.02;100.00;95378.94;7435466;19;20395;-88
2023/07/24 05:26:40;;;;;;;9.80;8.20;;;;;;;15.15;100.00;95374.78;7434777;19;20381;-89
2023/07/24 05:29:07;;;;;;;14.30;9.37;;;;;;;15.28;100.00;95399.91;7434356;19;20394;-89
2023/07/24 05:31:35;;;;;;;11.67;8.93;;;;;;;15.79;100.00;95462.78;7434149;19;20374;-89
2023/07/24 05:34:03;;;;;;;10.90;9.80;;;;;;;15.51;100.00;95439.50;7431466;19;20979;-89
2023/07/24 05:36:30;;;;;;;10.30;8.60;;;;;;;15.64;100.00;95421.28;7433659;19;20985;-89
2023/07/24 05:38:58;;;;;;;10.17;7.87;;;;;;;16.09;100.00;95448.28;7432035;19;20378;-88
2023/07/24 05:41:25;;;;;;;9.20;8.17;;;;;;;15.81;100.00;95393.84;7429223;19;20463;-89
2023/07/24 05:43:52;;;;;;;10.97;9.07;;;;;;;15.76;100.00;95402.25;7430631;19;20430;-89
2023/07/24 05:46:19;;;;;;;10.50;8.40;;;;;;;15.00;100.00;95327.97;7432283;19;20413;-89
2023/07/24 05:48:46;;;;;;;10.40;9.00;;;;;;;15.08;100.00;95428.75;7430081;19;20394;-89
2023/07/24 05:51:13;;;;;;;13.00;9.50;;;;;;;15.32;100.00;95541.81;7424788;19;20422;-89
2023/07/24 05:53:40;;;;;;;14.40;9.23;;;;;;;15.36;100.00;95621.78;7402184;19;20351;-89
2023/07/24 05:56:07;;;;;;;10.63;9.20;;;;;;;14.89;100.00;95577.38;7404458;19;20424;-88
2023/07/24 05:59:05;;;;;;;9.60;8.10;;;;;;;15.07;100.00;95530.31;7401696;19;20423;-90
2023/07/24 06:02:08;;;;;;;9.53;8.40;;;;;;;13.30;100.00;95206.59;7420826;19;20434;-92
2023/07/24 06:05:12;;;;;;;13.07;10.30;;;;;;;14.47;100.00;95318.75;7411881;19;20413;-91
2023/07/24 06:07:39;;;;;;;9.63;8.43;;;;;;;14.34;100.00;95279.56;7403036;19;20400;-90
2023/07/24 06:10:15;;;;;;;10.87;9.47;;;;;;;13.47;100.00;95147.50;7399083;19;20407;-90
2023/07/24 06:12:47;;;;;;;14.70;9.70;;;;;;;13.51;100.00;95150.22;7399567;19;20988;-91
2023/07/24 06:15:20;;;;;;;11.90;9.90;;;;;;;13.57;100.00;95161.97;7399897;19;20476;-90
2023/07/24 06:17:56;;;;;;;11.73;9.50;;;;;;;14.45;100.00;95291.78;7400223;19;20402;-91
2023/07/24 06:21:10;;;;;;;9.63;8.63;;;;;;;13.80;100.00;95135.13;7398061;19;20421;-90
2023/07/24 06:24:14;;;;;;;11.10;9.40;;;;;;;14.27;100.00;95157.22;7396894;19;20406;-90
2023/07/24 06:29:53;;;;;;;14.70;9.33;;;;;;;14.89;100.00;95178.94;7400736;19;20415;-89
2023/07/24 06:32:31;;;;;;;10.10;8.87;;;;;;;14.72;100.00;95143.22;7401126;19;20458;-89
2023/07/24 06:34:58;;;;;;;10.17;8.77;;;;;;;15.45;100.00;95256.44;7402032;19;20391;-88
2023/07/24 06:37:28;;;;;;;12.73;8.77;;;;;;;15.14;100.00;95164.81;7398658;19;20388;-89
2023/07/24 06:39:56;;;;;;;9.80;8.80;;;;;;;14.85;100.00;95150.81;7400630;19;20977;-89
2023/07/24 06:42:32;;;;;;;13.80;10.53;;;;;;;14.82;100.00;95135.59;7400263;19;20395;-88
2023/07/24 06:45:03;;;;;;;10.50;8.90;;;;;;;15.98;100.00;95288.31;7403369;19;20466;-91
2023/07/24 06:47:34;;;;;;;11.80;9.37;;;;;;;16.30;100.00;95316.78;7397842;19;20355;-89
2023/07/24 06:50:02;;;;;;;9.93;8.80;;;;;;;15.95;100.00;95297.84;7397671;19;20412;-89
2023/07/24 06:52:29;;;;;;;12.90;9.63;;;;;;;17.02;100.00;95432.78;7400141;19;20395;-89
2023/07/24 06:58:03;;;;;;;12.33;9.13;;;;;;;16.34;100.00;95322.88;7399640;19;20760;-89
2023/07/24 07:00:30;;;;;;;11.53;9.50;;;;;;;16.61;100.00;95315.88;7398410;19;20420;-89
2023/07/24 07:02:57;;;;;;;13.50;9.73;;;;;;;16.89;100.00;95355.03;7400382;19;20393;-89
2023/07/24 07:05:24;;;;;;;10.50;9.37;;;;;;;16.66;100.00;95347.47;7395108;19;20368;-88
2023/07/24 07:07:51;;;;;;;11.23;9.30;;;;;;;16.24;100.00;95265.75;7402741;19;20391;-89
2023/07/24 07:10:21;;;;;;;11.13;8.80;;;;;;;16.43;100.00;95246.59;7398552;19;20479;-89
2023/07/24 07:13:00;;;;;;;11.63;10.10;;;;;;;16.83;100.00;95239.88;7398004;19;20388;-89
2023/07/24 07:16:00;;;;;;;12.17;9.07;;;;;;;17.69;100.00;95271.19;7400341;19;20415;-89
2023/07/24 07:18:27;;;;;;;10.80;8.63;;;;;;;18.88;100.00;95385.28;7399050;19;20369;-89
2023/07/24 07:20:54;;;;;;;8.87;7.97;;;;;;;18.47;100.00;95272.22;7407071;19;20435;-89
2023/07/24 07:23:22;;;;;;;10.13;9.10;;;;;;;19.43;100.00;95376.09;7399917;19;20385;-89
2023/07/24 07:25:50;;;;;;;9.80;8.80;;;;;;;19.73;100.00;95428.13;7400675;19;20389;-89
2023/07/24 07:28:18;;;;;;;11.03;9.30;;;;;;;18.90;100.00;95288.44;7399124;19;20456;-89
2023/07/24 07:30:45;;;;;;;12.13;8.90;;;;;;;19.03;100.00;95340.31;7394875;19;20429;-89
2023/07/24 07:33:13;;;;;;;14.20;9.60;;;;;;;19.18;100.00;95411.28;7399554;19;20377;-88
2023/07/24 07:35:40;;;;;;;12.13;9.17;;;;;;;18.48;100.00;95281.75;7398045;19;20961;-89
2023/07/24 07:38:07;;;;;;;11.07;9.60;;;;;;;18.23;100.00;95188.41;7400535;19;20448;-90
2023/07/24 07:40:59;;;;;;;10.00;8.37;;;;;;;18.23;100.00;95172.34;7410201;19;20967;-89
2023/07/24 07:43:28;;;;;;;10.20;8.60;;;;;;;19.41;100.00;95307.97;7405929;19;20349;-90
2023/07/24 07:45:56;;;;;;;10.03;8.10;;;;;;;18.79;100.00;95266.41;7400600;19;20407;-90
2023/07/24 07:48:23;;;;;;;8.97;8.07;;;;;;;18.58;100.00;95286.22;7405014;19;20383;-90
2023/07/24 07:50:54;;;;;;;10.27;8.57;;;;;;;19.29;100.00;95389.72;7412293;19;20436;-90
2023/07/24 07:53:21;;;;;;;11.27;8.67;;;;;;;18.09;100.00;95178.66;7427412;19;20389;-90
2023/07/24 07:56:02;;;;;;;9.83;8.40;;;;;;;18.49;100.00;95208.31;7420302;19;20762;-90
2023/07/24 07:58:29;;;;;;;9.93;8.77;;;;;;;20.04;100.00;95440.28;7398890;19;20383;-90
2023/07/24 08:00:57;;;;;;;10.40;9.40;;;;;;;19.12;100.00;95262.84;7393309;19;20959;-90
2023/07/24 08:03:24;;;;;;;9.77;8.77;;;;;;;18.43;100.00;95110.88;7394832;19;20745;-90
2023/07/24 08:05:58;;;;;;;11.30;8.70;;;;;;;18.65;100.00;95138.84;7394947;19;20384;-90
2023/07/24 08:08:26;;;;;;;9.20;8.27;;;;;;;18.85;100.00;95174.50;7394766;19;20377;-90
2023/07/24 08:10:53;;;;;;;9.30;8.23;;;;;;;19.16;100.00;95167.09;7393623;19;20393;-90
2023/07/24 08:13:20;;;;;;;11.53;9.00;;;;;;;20.02;100.00;95267.41;7395016;19;20369;-90
2023/07/24 08:15:49;;;;;;;9.37;8.40;;;;;;;20.07;100.00;95350.91;7393805;19;20381;-90
2023/07/24 08:18:16;;;;;;;10.43;9.07;;;;;;;19.46;100.00;95253.88;7395218;19;20367;-90
2023/07/24 08:20:47;;;;;;;9.47;8.40;;;;;;;19.00;100.00;95166.97;7393518;19;20417;-90
2023/07/24 08:23:20;;;;;;;12.17;10.43;;;;;;;20.21;100.00;95341.06;7394612;19;20896;-90
2023/07/24 08:25:52;;;;;;;9.10;8.20;;;;;;;19.98;100.00;95336.50;7394541;19;20988;-90
2023/07/24 08:28:20;;;;;;;12.40;8.03;;;;;;;19.75;100.00;95315.81;7404758;19;20481;-90
2023/07/24 08:30:57;;;;;;;12.00;10.70;;;;;;;19.74;100.00;95311.63;7391883;19;20425;-90
2023/07/24 08:33:29;;;;;;;8.60;7.40;;;;;;;20.47;100.00;95412.72;7394462;19;20380;-90
2023/07/24 08:36:06;;;;;;;13.13;9.90;;;;;;;20.45;100.00;95388.19;7393953;19;20451;-90
2023/07/24 08:38:37;;;;;;;21.93;16.33;;;;;;;20.18;100.00;95323.13;7393786;19;20389;-90
2023/07/24 08:41:06;;;;;;;19.20;11.83;;;;;;;20.74;100.00;95404.50;7392479;19;20444;-90
2023/07/24 08:43:34;;;;;;;11.70;10.50;;;;;;;20.31;100.00;95340.88;7394260;19;20381;-90
2023/07/24 08:46:02;;;;;;;10.33;9.13;;;;;;;;;;7395062;19;20372;-90
2023/07/24 08:48:39;;;;;;;10.50;8.93;;;;;;;19.24;100.00;95161.59;7393527;19;20377;-90
2023/07/24 08:51:10;;;;;;;9.77;8.80;;;;;;;20.80;100.00;95402.84;7391864;19;20420;-91
2023/07/24 08:53:40;;;;;;;10.33;9.23;;;;;;;19.51;100.00;95215.13;7393676;19;20396;-91
2023/07/24 08:56:10;;;;;;;10.80;9.70;;;;;;;20.59;100.00;95336.13;7393872;19;20381;-91
2023/07/24 08:58:39;;;;;;;12.50;9.10;;;;;;;20.37;100.00;95290.88;7394481;19;20395;-91
2023/07/24 09:01:08;;;;;;;12.37;8.37;;;;;;;21.10;100.00;95366.91;7392853;19;20832;-91
2023/07/24 09:03:40;;;;;;;10.10;8.70;;;;;;;19.94;100.00;95166.78;7393452;19;21151;-91
2023/07/24 09:06:11;;;;;;;10.90;9.23;;;;;;;20.79;100.00;95290.41;7395696;19;20372;-91
2023/07/24 09:08:41;;;;;;;10.13;8.43;;;;;;;20.69;100.00;95267.97;7394662;19;20464;-91
2023/07/24 09:11:09;;;;;;;10.07;7.97;;;;;;;20.40;100.00;95211.41;7394403;19;20405;-91
2023/07/24 09:13:38;;;;;;;13.90;8.73;;;;;;;20.78;100.00;95278.16;7422975;19;20429;-91
2023/07/24 09:16:05;;;;;;;11.27;8.53;;;;;;;20.26;100.00;95195.63;7427047;19;20396;-90
2023/07/24 09:18:43;;;;;;;9.93;8.83;;;;;;;20.66;100.00;95282.25;7398284;19;20416;-91
2023/07/24 09:21:13;;;;;;;9.40;8.33;;;;;;;21.37;100.00;95387.44;7391358;19;20412;-91
2023/07/24 09:23:43;;;;;;;10.90;8.23;;;;;;;20.03;100.00;95185.72;7394251;19;20850;-91
2023/07/24 09:26:10;;;;;;;13.10;9.20;;;;;;;20.07;100.00;95195.25;7393579;19;20373;-91
2023/07/24 09:28:37;;;;;;;10.30;9.10;;;;;;;19.96;100.00;95162.50;7400121;19;20364;-91
2023/07/24 09:31:05;;;;;;;9.60;8.60;;;;;;;21.04;100.00;95301.34;7397708;19;20421;-91
2023/07/24 09:33:37;;;;;;;9.80;8.67;;;;;;;21.69;100.00;95365.19;7400386;19;20413;-91
2023/07/24 09:36:08;;;;;;;11.03;10.03;;;;;;;20.87;100.00;95195.78;7401173;19;20718;-91
2023/07/24 09:38:36;;;;;;;13.30;9.83;;;;;;;20.78;100.00;95149.19;7400995;19;20381;-91
2023/07/24 09:41:05;;;;;;;10.20;9.10;;;;;;;22.17;100.00;95310.50;7399381;19;20422;-91
2023/07/24 09:43:35;;;;;;;10.10;8.77;;;;;;;21.90;100.00;95243.50;7404323;19;20777;-91
2023/07/24 09:46:08;;;;;;;10.77;9.00;;;;;;;21.99;100.00;95265.19;7400153;19;20717;-91
2023/07/24 09:48:38;;;;;;;10.17;8.63;;;;;;;20.80;100.00;95104.59;7401097;19;20369;-90
2023/07/24 09:51:14;;;;;;;11.60;9.23;;;;;;;22.17;100.00;95291.66;7398367;19;20408;-91
2023/07/24 09:53:55;;;;;;;10.43;8.87;;;;;;;22.01;100.00;95265.50;7400728;19;20769;-90
2023/07/24 09:56:23;;;;;;;12.93;9.30;;;;;;;21.69;100.00;95236.78;7401520;19;20405;-90
2023/07/24 09:59:12;;;;;;;13.40;9.60;;;;;;;21.59;100.00;95226.28;7400330;19;20372;-90
2023/07/24 10:01:42;;;;;;;8.77;7.87;;;;;;;21.67;100.00;95209.53;7399312;19;20876;-90
2023/07/24 10:04:10;;;;;;;11.80;8.27;;;;;;;22.06;100.00;95237.34;7399661;19;20380;-90
2023/07/24 10:06:44;;;;;;;12.47;8.80;;;;;;;22.18;100.00;95230.50;7399878;19;20460;-91
2023/07/24 10:09:13;;;;;;;10.07;8.13;;;;;;;21.83;100.00;95125.28;7398908;19;20445;-90
2023/07/24 10:11:46;;;;;;;12.70;9.20;;;;;;;22.16;100.00;95136.66;7398826;19;20381;-90
2023/07/24 10:14:14;;;;;;;15.03;9.77;;;;;;;23.59;100.00;95311.66;7398387;19;20384;-90
2023/07/24 10:16:45;;;;;;;12.43;9.67;;;;;;;22.46;100.00;95113.81;7398377;19;20373;-90
2023/07/24 10:19:18;;;;;;;14.30;10.30;;;;;;;22.86;100.00;95226.56;7398282;19;20456;-90
2023/07/24 10:21:52;;;;;;;10.83;8.90;;;;;;;21.51;100.00;95069.72;7398282;19;20364;-90
2023/07/24 11:46:25;;;;;;;11.80;9.87;;;;;;;19.63;100.00;95077.75;7319522;19;20423;-96
2023/07/24 11:49:14;;;;;;;11.20;9.33;;;;;;;19.25;100.00;95037.91;7432748;19;20411;-96
2023/07/24 11:52:06;;;;;;;11.93;9.67;;;;;;;20.99;100.00;95295.72;7432283;19;20396;-96
2023/07/24 11:55:27;;;;;;;13.00;11.30;;;;;;;19.37;100.00;95053.38;7432472;19;20341;-96
2023/07/24 11:58:39;;;;;;;10.93;9.30;;;;;;;19.89;100.00;95151.91;7436014;19;20424;-96
2023/07/24 12:11:32;;;;;;;11.93;9.53;;;;;;;18.50;100.00;95017.84;7435136;19;20433;-96
2023/07/24 12:14:29;;;;;;;10.77;9.00;;;;;;;19.78;100.00;95202.38;7434836;19;20356;-96
2023/07/24 12:17:23;;;;;;;10.90;9.07;;;;;;;20.70;100.00;95350.09;7434019;19;20381;-96
2023/07/24 12:20:16;;;;;;;10.60;9.33;;;;;;;18.70;100.00;95057.31;7431706;19;20423;-96
2023/07/24 12:22:57;;;;;;;11.43;10.17;;;;;;;20.02;100.00;95213.75;7429052;19;20416;-96
2023/07/24 12:26:10;;;;;;;12.30;9.10;;;;;;;19.02;100.00;95067.44;7434485;19;20389;-96
2023/07/24 12:29:13;;;;;;;13.43;10.90;;;;;;;20.76;100.00;95321.56;7433613;19;20439;-96
2023/07/24 12:39:23;;;;;;;15.87;10.07;;;;;;;19.35;100.00;95020.84;7431459;19;20413;-96
2023/07/24 12:42:32;;;;;;;10.47;8.73;;;;;;;19.27;100.00;95016.81;7430625;19;20400;-96
2023/07/24 12:45:12;;;;;;;13.67;10.37;;;;;;;20.32;100.00;95159.81;7434303;19;20365;-96
2023/07/24 12:47:49;;;;;;;11.63;10.53;;;;;;;20.62;100.00;95142.66;7429593;19;20369;-96
2023/07/24 12:51:00;;;;;;;12.63;9.53;;;;;;;19.58;100.00;95003.91;7431443;19;20416;-96
2023/07/24 12:54:02;;;;;;;11.10;9.53;;;;;;;20.96;100.00;95136.06;7431845;19;20399;-96
2023/07/24 12:57:16;;;;;;;;;;;;;;;;;;;;;
2023/07/24 13:00:08;;;;;;;16.80;11.50;;;;;;;22.04;100.00;95263.91;7430051;19;20416;-96
2023/07/24 13:02:58;;;;;;;13.37;8.67;;;;;;;19.94;100.00;95035.31;7436808;19;20365;-96
2023/07/24 13:05:47;;;;;;;14.30;11.03;;;;;;;21.99;100.00;95265.19;7441685;19;20360;-96
2023/07/24 13:08:39;;;;;;;13.37;11.23;;;;;;;20.26;100.00;95029.19;7439170;19;20404;-95
2023/07/24 13:11:54;;;;;;;;;;;;;;;;;;;;;
2023/07/24 13:14:42;;;;;;;12.87;9.50;;;;;;;19.93;100.00;95018.47;7438900;19;20383;-96
2023/07/24 13:17:33;;;;;;;14.60;10.40;;;;;;;21.94;100.00;95300.72;7437463;19;20404;-96
2023/07/24 13:20:38;;;;;;;11.27;10.13;;;;;;;20.55;100.00;95099.09;7437642;19;20349;-96
2023/07/24 13:23:32;;;;;;;11.03;9.77;;;;;;;20.98;100.00;95173.28;7434831;19;20349;-96
2023/07/24 13:26:34;;;;;;;10.90;9.23;;;;;;;20.83;100.00;95125.28;7439065;19;20373;-96
2023/07/24 13:35:12;;;;;;;12.33;10.40;;;;;;;22.21;100.00;95268.06;7401026;19;20397;-91
2023/07/24 13:37:40;;;;;;;11.87;9.47;;;;;;;20.19;100.00;94946.16;7399308;19;20368;-91
2023/07/24 13:40:07;;;;;;;13.20;9.87;;;;;;;20.37;100.00;94939.16;7398576;19;20397;-91
2023/07/24 13:42:35;;;;;;;10.90;9.40;;;;;;;21.01;100.00;94971.63;7399471;19;20476;-90
2023/07/24 13:45:04;;;;;;;10.60;9.43;;;;;;;21.82;100.00;95054.56;7401016;19;20444;-91
2023/07/24 13:47:31;;;;;;;17.03;9.93;;;;;;;21.66;100.00;94995.50;7401006;19;20412;-90
2023/07/24 13:50:02;;;;;;;15.77;11.80;;;;;;;20.96;100.00;94880.75;7398847;19;20400;-91
2023/07/24 13:52:30;;;;;;;14.50;12.40;;;;;;;22.17;100.00;95043.94;7399624;19;20731;-90
2023/07/24 13:54:58;;;;;;;9.73;8.60;;;;;;;22.09;100.00;94983.41;7403518;19;20373;-91
2023/07/24 13:57:39;;;;;;;11.17;9.47;;;;;;;22.85;100.00;95057.91;7417959;19;20387;-91
2023/07/24 14:00:06;;;;;;;11.03;7.90;;;;;;;23.14;100.00;95028.03;7398561;19;20479;-91
2023/07/24 14:02:37;;;;;;;10.17;9.27;;;;;;;23.53;100.00;95118.34;7400024;19;20396;-91
2023/07/24 14:05:05;;;;;;;12.40;10.20;;;;;;;23.26;100.00;95049.53;7399829;19;20387;-90
2023/07/24 14:07:32;;;;;;;9.63;8.70;;;;;;;23.99;100.00;95070.00;7399864;19;20736;-91
2023/07/24 14:09:59;;;;;;;11.13;10.03;;;;;;;23.92;100.00;95095.34;7399199;19;20828;-91
2023/07/24 14:12:27;;;;;;;10.17;8.17;;;;;;;23.68;100.00;95075.44;7399081;19;20401;-91
2023/07/24 14:14:54;;;;;;;9.37;8.10;;;;;;;23.07;100.00;94998.59;7399160;19;20396;-91
2023/07/24 14:17:21;;;;;;;8.63;7.83;;;;;;;22.94;100.00;94952.84;7399789;19;20401;-91
2023/07/24 14:19:48;;;;;;;8.70;7.80;;;;;;;24.92;100.00;95216.56;7399096;19;20401;-91
2023/07/24 14:22:15;;;;;;;11.53;7.87;;;;;;;23.32;100.00;94944.50;7398360;19;20396;-91
2023/07/24 14:24:43;;;;;;;8.47;7.60;;;;;;;24.87;100.00;95103.59;7399613;19;20390;-91
2023/07/24 14:27:10;;;;;;;8.33;7.50;;;;;;;23.38;100.00;95007.50;7405063;19;20384;-91
2023/07/24 14:29:38;;;;;;;6.93;6.23;;;;;;;23.38;100.00;94950.84;7408987;19;20393;-91
2023/07/24 14:32:06;;;;;;;9.77;7.73;;;;;;;23.63;99.37;95009.25;7406704;19;20369;-92
2023/07/24 14:34:33;;;;;;;8.97;7.93;;;;;;;24.06;99.83;95083.25;7398954;19;20388;-91
2023/07/24 14:37:00;;;;;;;8.33;6.73;;;;;;;24.69;92.90;95092.75;7398111;19;20392;-92
2023/07/24 14:39:27;;;;;;;8.20;7.37;;;;;;;23.96;93.39;94966.34;7397821;19;20464;-91
2023/07/24 14:41:54;;;;;;;8.20;6.90;;;;;;;23.63;93.84;95024.69;7397598;19;20378;-91
2023/07/24 14:44:22;;;;;;;8.47;7.13;;;;;;;23.38;94.23;95069.53;7396579;19;20407;-91
2023/07/24 14:46:49;;;;;;;7.93;7.23;;;;;;;22.78;95.55;94996.88;7399777;19;20377;-92
2023/07/24 14:49:16;;;;;;;7.23;6.40;;;;;;;22.17;94.71;94903.94;7399700;19;20455;-91
2023/07/24 14:51:43;;;;;;;6.83;6.17;;;;;;;23.21;94.90;95063.56;7401029;19;20381;-91
2023/07/24 14:54:10;;;;;;;6.70;6.00;;;;;;;21.57;93.91;94844.72;7418422;19;20377;-91
2023/07/24 14:56:37;;;;;;;8.00;6.47;;;;;;;23.70;93.93;95159.41;7397742;19;20387;-91
2023/07/24 14:59:23;;;;;;;8.13;6.00;;;;;;;22.56;93.10;95048.03;7397945;19;20380;-91
2023/07/24 15:01:50;;;;;;;5.73;4.90;;;;;;;22.81;95.57;95138.84;7399008;19;20381;-91
2023/07/24 15:04:17;;;;;;;6.97;5.97;;;;;;;21.84;94.70;94995.69;7396110;19;20380;-91
2023/07/24 15:06:44;;;;;;;11.33;6.67;;;;;;;21.89;97.21;94999.00;7398557;19;20456;-91
2023/07/24 15:09:11;;;;;;;6.23;5.60;;;;;;;21.40;99.06;94929.44;7397992;19;20389;-91
2023/07/24 15:11:38;;;;;;;6.97;5.87;;;;;;;21.30;97.89;94909.00;7398199;19;20440;-91
2023/07/24 15:14:05;;;;;;;6.50;5.90;;;;;;;21.19;96.15;94893.16;7398444;19;20752;-91
2023/07/24 15:16:32;;;;;;;7.20;5.53;;;;;;;20.82;94.93;94816.69;7408088;19;20436;-91
2023/07/24 15:18:59;;;;;;;6.83;5.73;;;;;;;21.23;97.11;94929.50;7405281;19;20381;-91
2023/07/24 15:21:26;;;;;;;5.77;4.83;;;;;;;20.45;99.61;94836.97;7397051;19;20428;-91
2023/07/24 15:23:54;;;;;;;6.23;5.50;;;;;;;21.78;98.92;95002.81;7395908;19;20430;-91
2023/07/24 15:26:21;;;;;;;6.20;5.20;;;;;;;21.02;97.86;94825.31;7412350;19;20393;-93
2023/07/24 15:28:49;;;;;;;7.83;6.03;;;;;;;22.55;95.32;94965.72;7430258;19;20412;-94
2023/07/24 15:31:16;;;;;;;7.00;5.47;;;;;;;22.84;91.34;94908.91;7413454;19;20420;-91